Airfield :
LOGIN :

Register | Disclaimer

   EN    FR    IT 

 










Legend :    VFR   Marginal VFR   IFR   Intensive IFR   Very Intensive IFR
Visi :
Ceiling :
>= 8 km
>= 3000ft
5 to 8 km
1000 to 3000 ft
1500m to 5 km
500 to 1000 ft
800 to 1500m
200 to 500 ft
< 800m
< 200 ft
Symbols :   Thunderstorms  Fog  Heavy snow  Heavy precipitations  Wind > 20 kt
SIGMETs :     Misc.  Thunderstorms  Icing  Turbulence  Mountain Waves  Volcanic Ashes






- Airport Elevation : 616 ft
- IATA code : PUF


LFBP - Pau

CURRENT METAR :
  • 030800Z AUTO 27007KT CAVOK 19/14 Q1021 NOSIG

EXPIRED METARs :
  • 030730Z AUTO 27006KT 230V320 9999 FEW016 19/15 Q1021 NOSIG
  • 030700Z AUTO 26006KT 9999 FEW013 18/15 Q1021 NOSIG
  • 030630Z AUTO 26005KT 230V290 9999 FEW009 17/15 Q1021 NOSIG
  • 030600Z AUTO 24004KT 210V270 9999 FEW007 17/16 Q1021 NOSIG
  • 030530Z AUTO 24003KT 9999 FEW007 16/16 Q1021 NOSIG
  • 030500Z AUTO 23004KT CAVOK 16/15 Q1021 TEMPO BKN006

TAF TAF LFBP
Valid from the 03 at 06:00 until the 04 at 06:00 UTC


030500Z 0306/0406 23005KT CAVOK
BECMG 0310/0312 33010KT
TEMPO 0315/0320 VRB03KT BKN060CB
PROB40
TEMPO 0316/0320 VRB15G25KT 3000 TSRA
FM032000 VRB03KT 9999 BKN025
PROB40
TEMPO 0320/0323 4000 -SHRA BKN011 FEW060CB
PROB30
TEMPO 0401/0406 BKN009



MET'MAP, your aeronautical weather chart ! - Copyright ORBIFLY December 2007 - Disclaimer

ORBIFLY MET'MAP TEAM :

Programming & Development : Alexandra Zaïnal
Original concept : Baudouin d'Aumeries
Technical & hardware support : Manuel Goepfert
Assistance : Marc-Olivier Méhu




SOURCES & CREDITS :

   NOAA